Time;durP1;ratioP1;P1;durP2;ratioP2;P2;SDS_P1;SDS_P2;PMS_P1;PMS_P2;Temp;Humidity;BMP_temperature;BMP_pressure;BME280_temperature;BME280_humidity;BME280_pressure;Samples;Min_cycle;Max_cycle;Signal;HPM_P1;HPM_P2
2022/08/14 00:00:17;0.00;0.00;0.62;0.00;0.00;0.62;7.00;6.40;;;29.60;31.10;;;;;;2265791;61;20376;-60
2022/08/14 00:03:02;0.00;0.00;0.62;0.00;0.00;0.62;7.70;6.67;;;29.60;31.20;;;;;;2265426;61;20381;-60
2022/08/14 00:05:47;0.00;0.00;0.62;0.00;0.00;0.62;7.97;7.20;;;29.60;31.40;;;;;;2265392;61;20429;-60
2022/08/14 00:08:33;0.00;0.00;0.62;0.00;0.00;0.62;8.53;7.63;;;29.60;31.70;;;;;;2265336;61;20388;-61
2022/08/14 00:11:18;0.00;0.00;0.62;0.00;0.00;0.62;8.03;6.80;;;29.60;32.10;;;;;;2265407;61;20393;-60
2022/08/14 00:14:05;0.00;0.00;0.62;0.00;0.00;0.62;7.77;6.87;;;29.60;32.20;;;;;;2265759;61;20412;-60
2022/08/14 00:16:51;0.00;0.00;0.62;0.00;0.00;0.62;7.97;7.20;;;29.60;32.10;;;;;;2264493;61;20365;-61
2022/08/14 00:19:36;0.00;0.00;0.62;0.00;0.00;0.62;7.63;6.93;;;29.60;32.00;;;;;;2265449;61;20361;-61
2022/08/14 00:22:21;0.00;0.00;0.62;0.00;0.00;0.62;7.60;6.87;;;29.50;32.00;;;;;;2265756;61;20381;-60
2022/08/14 00:25:09;0.00;0.00;0.62;0.00;0.00;0.62;7.47;6.80;;;29.60;32.00;;;;;;2265541;61;20403;-60
2022/08/14 00:27:54;0.00;0.00;0.62;0.00;0.00;0.62;8.00;7.30;;;29.60;32.00;;;;;;2265352;61;20369;-60
2022/08/14 00:30:41;0.00;0.00;0.62;0.00;0.00;0.62;8.40;7.40;;;29.60;32.10;;;;;;2265296;61;20400;-61
2022/08/14 00:33:27;0.00;0.00;0.62;0.00;0.00;0.62;8.87;7.00;;;29.60;32.10;;;;;;2265113;61;20364;-60
2022/08/14 00:36:12;0.00;0.00;0.62;0.00;0.00;0.62;8.77;7.93;;;29.60;32.10;;;;;;2265664;61;20686;-61
2022/08/14 00:38:57;0.00;0.00;0.62;0.00;0.00;0.62;11.77;8.93;;;29.60;32.10;;;;;;2264901;61;20428;-60
2022/08/14 00:41:45;0.00;0.00;0.62;0.00;0.00;0.62;8.60;7.90;;;29.60;32.60;;;;;;2265418;61;20385;-60
2022/08/14 00:44:29;0.00;0.00;0.62;0.00;0.00;0.62;8.23;7.53;;;29.60;32.00;;;;;;2265863;61;20483;-60
2022/08/14 00:47:15;0.00;0.00;0.62;0.00;0.00;0.62;8.67;7.87;;;29.60;32.10;;;;;;2265306;61;20365;-61
2022/08/14 00:50:01;0.00;0.00;0.62;0.00;0.00;0.62;8.60;7.80;;;29.60;32.10;;;;;;2265402;61;20388;-61
2022/08/14 00:52:48;0.00;0.00;0.62;0.00;0.00;0.62;8.47;7.67;;;29.50;31.90;;;;;;2265024;61;20384;-61
2022/08/14 00:55:35;0.00;0.00;0.62;0.00;0.00;0.62;8.63;7.83;;;29.60;31.90;;;;;;2265362;61;20663;-60
2022/08/14 00:58:31;0.00;0.00;0.62;0.00;0.00;0.62;7.70;6.80;;;29.60;31.70;;;;;;2265451;61;20692;-61
2022/08/14 01:01:17;0.00;0.00;0.62;0.00;0.00;0.62;7.67;6.90;;;29.50;31.60;;;;;;2264829;61;20369;-60
2022/08/14 01:04:03;0.00;0.00;0.62;0.00;0.00;0.62;8.67;7.83;;;29.50;31.50;;;;;;2265363;61;20745;-60
2022/08/14 01:06:50;0.00;0.00;0.62;0.00;0.00;0.62;7.37;6.67;;;29.40;31.60;;;;;;2265469;61;20408;-60
2022/08/14 01:09:37;0.00;0.00;0.62;0.00;0.00;0.62;8.90;8.10;;;29.50;31.70;;;;;;2265390;61;20392;-60
2022/08/14 01:12:23;0.00;0.00;0.62;0.00;0.00;0.62;8.40;7.70;;;29.40;31.60;;;;;;2265214;61;20431;-61
2022/08/14 01:15:10;0.00;0.00;0.62;0.00;0.00;0.62;8.03;7.20;;;29.40;32.10;;;;;;2265163;61;20404;-59
2022/08/14 01:21:03;0.00;0.00;0.62;0.00;0.00;0.62;8.87;7.23;;;29.20;31.90;;;;;;2266294;61;20383;-59
2022/08/14 01:23:52;0.00;0.00;0.62;0.00;0.00;0.62;7.13;6.53;;;29.10;32.90;;;;;;2265936;61;20697;-59
2022/08/14 01:26:37;0.00;0.00;0.62;0.00;0.00;0.62;7.10;6.50;;;29.10;32.20;;;;;;2265834;61;20369;-60
2022/08/14 01:29:22;0.00;0.00;0.62;0.00;0.00;0.62;8.17;7.43;;;29.00;32.30;;;;;;2265979;61;20365;-60
2022/08/14 01:32:07;0.00;0.00;0.62;0.00;0.00;0.62;8.23;7.27;;;29.00;32.50;;;;;;2265913;61;20384;-61
2022/08/14 01:34:54;0.00;0.00;0.62;0.00;0.00;0.62;8.70;6.80;;;29.00;32.80;;;;;;2265881;61;20420;-61
2022/08/14 01:37:43;0.00;0.00;0.62;0.00;0.00;0.62;7.43;6.73;;;28.90;32.70;;;;;;2265944;61;20361;-62
2022/08/14 01:40:30;0.00;0.00;0.62;0.00;0.00;0.62;6.90;6.30;;;29.00;32.80;;;;;;2265851;61;20365;-61
2022/08/14 01:43:16;0.00;0.00;0.62;0.00;0.00;0.62;7.83;7.13;;;29.00;32.80;;;;;;2266202;61;20451;-62
2022/08/14 01:46:01;0.00;0.00;0.62;0.00;0.00;0.62;8.10;7.30;;;29.00;32.60;;;;;;2265527;61;20361;-62
2022/08/14 01:48:47;0.00;0.00;0.62;0.00;0.00;0.62;7.70;7.10;;;29.00;32.70;;;;;;2266149;61;20564;-60
2022/08/14 01:51:33;0.00;0.00;0.62;0.00;0.00;0.62;8.30;6.30;;;29.10;32.80;;;;;;2265736;61;20409;-59
2022/08/14 01:54:20;0.00;0.00;0.62;0.00;0.00;0.62;7.50;6.80;;;29.10;32.80;;;;;;2265895;61;20400;-60
2022/08/14 01:57:10;0.00;0.00;0.62;0.00;0.00;0.62;7.53;6.93;;;29.10;32.80;;;;;;2265805;61;20357;-60
2022/08/14 01:59:55;0.00;0.00;0.62;0.00;0.00;0.62;8.80;6.80;;;29.10;32.90;;;;;;2265892;61;20399;-62
2022/08/14 02:02:41;0.00;0.00;0.62;0.00;0.00;0.62;7.80;6.97;;;29.10;32.80;;;;;;2265800;61;20453;-62
2022/08/14 02:05:28;0.00;0.00;0.62;0.00;0.00;0.62;8.20;7.40;;;29.10;32.80;;;;;;2266153;61;20689;-61
2022/08/14 02:08:13;0.00;0.00;0.62;0.00;0.00;0.62;7.33;6.63;;;29.10;32.80;;;;;;2265459;61;20388;-61
2022/08/14 02:14:07;0.00;0.00;0.62;0.00;0.00;0.62;7.50;6.90;;;29.10;32.80;;;;;;2265665;61;20477;-60
2022/08/14 02:16:52;0.00;0.00;0.62;0.00;0.00;0.62;7.57;6.97;;;29.10;32.80;;;;;;2265847;61;20718;-61
2022/08/14 02:19:37;0.00;0.00;0.62;0.00;0.00;0.62;8.23;7.20;;;29.10;32.80;;;;;;2265907;61;20411;-62
2022/08/14 02:22:21;0.00;0.00;0.62;0.00;0.00;0.62;6.20;5.70;;;29.10;32.70;;;;;;2265310;61;20611;-60
2022/08/14 02:25:07;0.00;0.00;0.62;0.00;0.00;0.62;6.00;5.50;;;29.20;32.70;;;;;;2265700;61;20577;-61
2022/08/14 02:27:55;0.00;0.00;0.62;0.00;0.00;0.62;6.73;6.13;;;29.20;32.50;;;;;;2266099;61;20709;-60
2022/08/14 02:30:41;0.00;0.00;0.62;0.00;0.00;0.62;6.77;6.17;;;29.20;32.50;;;;;;2265256;61;20365;-61
2022/08/14 02:33:27;0.00;0.00;0.62;0.00;0.00;0.62;6.67;6.07;;;29.20;32.30;;;;;;2265737;61;20365;-61
2022/08/14 02:36:14;0.00;0.00;0.62;0.00;0.00;0.62;6.40;5.90;;;29.30;32.30;;;;;;2265549;61;20408;-61
2022/08/14 02:38:59;0.00;0.00;0.62;0.00;0.00;0.62;6.13;5.63;;;29.30;32.20;;;;;;2265620;61;20407;-61
2022/08/14 02:41:48;0.00;0.00;0.62;0.00;0.00;0.62;5.43;5.03;;;29.30;32.00;;;;;;2265836;61;20373;-61
2022/08/14 02:44:33;0.00;0.00;0.62;0.00;0.00;0.62;6.53;5.90;;;29.40;32.00;;;;;;2265340;61;20479;-62
2022/08/14 02:47:21;0.00;0.00;0.62;0.00;0.00;0.62;6.60;6.10;;;29.30;31.90;;;;;;2265489;61;20380;-61
2022/08/14 02:50:07;0.00;0.00;0.62;0.00;0.00;0.62;5.37;4.93;;;29.40;31.80;;;;;;2266086;61;20365;-62
2022/08/14 02:52:53;0.00;0.00;0.62;0.00;0.00;0.62;6.20;5.60;;;29.40;31.70;;;;;;2265247;61;20420;-62
2022/08/14 02:55:39;0.00;0.00;0.62;0.00;0.00;0.62;6.33;5.80;;;29.50;31.70;;;;;;2265528;61;20763;-62
2022/08/14 02:58:24;0.00;0.00;0.62;0.00;0.00;0.62;6.77;6.17;;;29.50;31.60;;;;;;2265566;61;20776;-61
2022/08/14 03:01:09;0.00;0.00;0.62;0.00;0.00;0.62;6.20;5.60;;;29.60;31.60;;;;;;2265642;61;20492;-61
2022/08/14 03:03:56;0.00;0.00;0.62;0.00;0.00;0.62;6.00;5.50;;;29.60;31.60;;;;;;2265311;61;20697;-63
2022/08/14 03:06:42;0.00;0.00;0.62;0.00;0.00;0.62;6.37;5.87;;;29.60;31.50;;;;;;2265336;61;20476;-62
2022/08/14 03:09:28;0.00;0.00;0.62;0.00;0.00;0.62;6.07;5.57;;;29.60;31.40;;;;;;2265674;61;20353;-61
2022/08/14 03:12:13;0.00;0.00;0.62;0.00;0.00;0.62;6.53;5.93;;;29.70;31.40;;;;;;2265804;61;20431;-62
2022/08/14 03:14:58;0.00;0.00;0.62;0.00;0.00;0.62;6.80;6.20;;;29.70;31.40;;;;;;2265189;61;20868;-62
2022/08/14 03:17:42;0.00;0.00;0.62;0.00;0.00;0.62;6.40;5.90;;;29.70;31.30;;;;;;2265657;61;20732;-62
2022/08/14 03:20:29;0.00;0.00;0.62;0.00;0.00;0.62;6.30;5.80;;;29.70;31.30;;;;;;2265424;61;20368;-61
2022/08/14 03:23:13;0.00;0.00;0.62;0.00;0.00;0.62;6.23;5.73;;;29.70;31.20;;;;;;2265582;61;20381;-61
2022/08/14 03:25:59;0.00;0.00;0.62;0.00;0.00;0.62;6.10;5.60;;;29.80;31.20;;;;;;2265587;61;20433;-62
2022/08/14 03:28:48;0.00;0.00;0.62;0.00;0.00;0.62;6.53;6.03;;;29.80;31.10;;;;;;2265553;61;20396;-62
2022/08/14 03:31:33;0.00;0.00;0.62;0.00;0.00;0.62;8.53;5.80;;;29.80;31.10;;;;;;2265556;61;20388;-62
2022/08/14 03:34:21;0.00;0.00;0.62;0.00;0.00;0.62;6.43;5.80;;;29.80;31.00;;;;;;2265858;61;20369;-61
2022/08/14 03:37:11;0.00;0.00;0.62;0.00;0.00;0.62;5.90;5.40;;;29.90;31.00;;;;;;2265132;61;20736;-60
2022/08/14 03:39:56;0.00;0.00;0.62;0.00;0.00;0.62;6.40;5.80;;;29.90;31.00;;;;;;2265530;61;20369;-62
2022/08/14 03:42:40;0.00;0.00;0.62;0.00;0.00;0.62;5.60;5.20;;;29.90;30.90;;;;;;2265449;61;20411;-62
2022/08/14 03:45:25;0.00;0.00;0.62;0.00;0.00;0.62;5.93;5.43;;;29.90;30.90;;;;;;2265577;61;20353;-62
2022/08/14 03:48:14;0.00;0.00;0.62;0.00;0.00;0.62;5.80;5.40;;;29.90;30.80;;;;;;2265490;61;20388;-63
2022/08/14 03:50:59;0.00;0.00;0.62;0.00;0.00;0.62;6.97;6.37;;;29.90;30.80;;;;;;2265436;61;20357;-62
2022/08/14 03:53:46;0.00;0.00;0.62;0.00;0.00;0.62;6.73;6.20;;;30.00;31.00;;;;;;2265575;61;20712;-61
2022/08/14 03:56:31;0.00;0.00;0.62;0.00;0.00;0.62;7.00;6.30;;;30.00;31.70;;;;;;2265716;61;20601;-62
2022/08/14 03:59:16;0.00;0.00;0.62;0.00;0.00;0.62;7.00;6.50;;;30.00;31.00;;;;;;2265205;61;20392;-61
2022/08/14 04:02:02;0.00;0.00;0.62;0.00;0.00;0.62;8.27;5.87;;;30.00;30.90;;;;;;2265523;61;20384;-60
2022/08/14 04:04:47;0.00;0.00;0.62;0.00;0.00;0.62;5.87;5.10;;;30.00;30.80;;;;;;2265387;61;20437;-63
2022/08/14 04:07:32;0.00;0.00;0.62;0.00;0.00;0.62;5.63;5.13;;;30.00;30.80;;;;;;2265519;61;20356;-62
2022/08/14 04:10:18;0.00;0.00;0.62;0.00;0.00;0.62;6.57;5.97;;;30.00;30.70;;;;;;2265433;61;20713;-62
2022/08/14 04:13:04;0.00;0.00;0.62;0.00;0.00;0.62;6.27;5.67;;;30.00;30.70;;;;;;2265326;61;20724;-62
2022/08/14 04:15:49;0.00;0.00;0.62;0.00;0.00;0.62;5.70;5.20;;;30.00;30.60;;;;;;2265345;61;20377;-63
2022/08/14 04:18:38;0.00;0.00;0.62;0.00;0.00;0.62;5.80;5.30;;;30.10;30.60;;;;;;2265852;61;20357;-63
2022/08/14 04:21:28;0.00;0.00;0.62;0.00;0.00;0.62;6.17;5.67;;;30.10;30.60;;;;;;2264967;61;20420;-63
2022/08/14 04:24:13;0.00;0.00;0.62;0.00;0.00;0.62;5.23;4.80;;;30.10;30.60;;;;;;2265335;61;20360;-62
2022/08/14 04:26:59;0.00;0.00;0.62;0.00;0.00;0.62;5.43;5.03;;;30.10;30.50;;;;;;2264952;61;20693;-61
2022/08/14 04:29:44;0.00;0.00;0.62;0.00;0.00;0.62;6.40;5.90;;;30.10;30.40;;;;;;2265388;61;20387;-60
2022/08/14 04:32:29;0.00;0.00;0.62;0.00;0.00;0.62;6.77;6.17;;;30.10;30.40;;;;;;2265500;61;20407;-62
2022/08/14 04:35:13;0.00;0.00;0.62;0.00;0.00;0.62;6.43;5.90;;;30.10;30.40;;;;;;2265274;61;20825;-62
2022/08/14 04:44:07;0.00;0.00;0.62;0.00;0.00;0.62;5.50;5.10;;;30.20;30.40;;;;;;2265254;61;20645;-62
2022/08/14 04:49:58;0.00;0.00;0.62;0.00;0.00;0.62;6.50;6.00;;;30.20;30.40;;;;;;2265841;61;20395;-62
2022/08/14 04:52:42;0.00;0.00;0.62;0.00;0.00;0.62;6.17;5.67;;;30.20;30.30;;;;;;2266199;61;20424;-62
2022/08/14 04:55:27;0.00;0.00;0.62;0.00;0.00;0.62;6.43;5.83;;;30.20;30.30;;;;;;2266353;61;20460;-61
2022/08/14 04:58:12;0.00;0.00;0.62;0.00;0.00;0.62;6.60;5.47;;;30.20;30.20;;;;;;2265755;61;20410;-61
2022/08/14 05:00:59;0.00;0.00;0.62;0.00;0.00;0.62;6.60;5.90;;;30.20;30.20;;;;;;2266183;61;20385;-61
2022/08/14 05:03:44;0.00;0.00;0.62;0.00;0.00;0.62;6.70;6.10;;;30.20;30.20;;;;;;2266383;61;20385;-62
2022/08/14 05:06:29;0.00;0.00;0.62;0.00;0.00;0.62;5.97;5.57;;;30.20;30.20;;;;;;2265866;61;20384;-60
2022/08/14 05:09:14;0.00;0.00;0.62;0.00;0.00;0.62;6.00;5.50;;;30.20;30.20;;;;;;2266118;61;20357;-62
2022/08/14 05:11:59;0.00;0.00;0.62;0.00;0.00;0.62;5.47;5.03;;;30.20;30.10;;;;;;2265800;61;20468;-62
2022/08/14 05:14:43;0.00;0.00;0.62;0.00;0.00;0.62;6.00;5.50;;;30.30;30.20;;;;;;2266060;61;20388;-61
2022/08/14 05:17:30;0.00;0.00;0.62;0.00;0.00;0.62;6.47;5.90;;;30.30;30.20;;;;;;2266207;61;20372;-62
2022/08/14 05:20:14;0.00;0.00;0.62;0.00;0.00;0.62;6.10;5.60;;;30.30;30.20;;;;;;2265153;61;20365;-62
2022/08/14 05:23:00;0.00;0.00;0.62;0.00;0.00;0.62;7.50;6.90;;;30.30;30.20;;;;;;2266065;61;20431;-61
2022/08/14 05:25:47;0.00;0.00;0.62;0.00;0.00;0.62;8.60;6.60;;;30.30;30.20;;;;;;2266068;61;20392;-61
2022/08/14 05:28:34;0.00;0.00;0.62;0.00;0.00;0.62;7.50;6.20;;;30.30;30.30;;;;;;2266164;61;20619;-60
2022/08/14 05:31:19;0.00;0.00;0.62;0.00;0.00;0.62;8.50;7.70;;;30.30;30.40;;;;;;2265996;61;20417;-62
2022/08/14 05:34:06;0.00;0.00;0.62;0.00;0.00;0.62;8.20;7.40;;;30.30;30.50;;;;;;2265714;61;20388;-60
2022/08/14 05:36:56;0.00;0.00;0.62;0.00;0.00;0.62;6.90;6.30;;;30.30;30.60;;;;;;2265978;61;20427;-63
2022/08/14 05:39:41;0.00;0.00;0.62;0.00;0.00;0.62;6.93;6.33;;;30.20;30.60;;;;;;2266229;61;20407;-67
2022/08/14 05:42:26;0.00;0.00;0.62;0.00;0.00;0.62;9.00;8.20;;;30.20;30.60;;;;;;2265389;61;20373;-66
2022/08/14 05:45:13;0.00;0.00;0.62;0.00;0.00;0.62;7.17;6.53;;;30.20;30.70;;;;;;2265565;61;20387;-62
2022/08/14 05:47:58;0.00;0.00;0.62;0.00;0.00;0.62;7.77;7.17;;;30.20;30.80;;;;;;2266243;61;20582;-66
2022/08/14 05:50:44;0.00;0.00;0.62;0.00;0.00;0.62;6.90;6.30;;;30.20;30.80;;;;;;2265804;61;20379;-65
2022/08/14 05:53:29;0.00;0.00;0.62;0.00;0.00;0.62;7.43;6.73;;;30.20;30.80;;;;;;2265867;61;20491;-64
2022/08/14 05:56:14;0.00;0.00;0.62;0.00;0.00;0.62;7.60;6.80;;;30.20;30.90;;;;;;2265816;61;20592;-64
2022/08/14 05:58:59;0.00;0.00;0.62;0.00;0.00;0.62;8.90;6.47;;;30.20;30.90;;;;;;2265944;61;20469;-67
2022/08/14 06:01:44;0.00;0.00;0.62;0.00;0.00;0.62;7.80;6.53;;;30.20;30.90;;;;;;2265797;61;20376;-66
2022/08/14 06:04:28;0.00;0.00;0.62;0.00;0.00;0.62;7.03;6.40;;;30.20;31.00;;;;;;2265439;61;20357;-64
2022/08/14 06:07:15;0.00;0.00;0.62;0.00;0.00;0.62;6.90;6.20;;;30.20;30.90;;;;;;2265703;61;20369;-66
2022/08/14 06:10:00;0.00;0.00;0.62;0.00;0.00;0.62;8.17;7.37;;;30.20;31.00;;;;;;2265706;61;20465;-65
2022/08/14 06:12:45;0.00;0.00;0.62;0.00;0.00;0.62;7.27;6.50;;;30.20;31.00;;;;;;2265503;61;20420;-65
2022/08/14 06:15:30;0.00;0.00;0.62;0.00;0.00;0.62;7.50;6.80;;;30.20;31.10;;;;;;2265731;61;20385;-67
2022/08/14 06:18:16;0.00;0.00;0.62;0.00;0.00;0.62;7.30;6.63;;;30.20;31.20;;;;;;2265370;61;20427;-66
2022/08/14 06:21:02;0.00;0.00;0.62;0.00;0.00;0.62;7.10;6.40;;;30.20;31.20;;;;;;2265850;61;20365;-62
2022/08/14 06:23:48;0.00;0.00;0.62;0.00;0.00;0.62;6.20;5.70;;;30.20;31.10;;;;;;2266034;61;20356;-65
2022/08/14 06:26:33;0.00;0.00;0.62;0.00;0.00;0.62;6.87;6.30;;;30.30;31.20;;;;;;2265477;61;20369;-65
2022/08/14 06:29:17;0.00;0.00;0.62;0.00;0.00;0.62;7.03;6.40;;;30.30;31.10;;;;;;2265752;61;20353;-63
2022/08/14 06:32:04;0.00;0.00;0.62;0.00;0.00;0.62;6.97;6.37;;;30.30;31.20;;;;;;2265960;61;20598;-64
2022/08/14 06:34:49;0.00;0.00;0.62;0.00;0.00;0.62;7.17;6.67;;;30.30;31.20;;;;;;2502346;53;20404;-65
2022/08/14 06:37:43;0.00;0.00;0.62;0.00;0.00;0.62;7.13;6.43;;;30.30;30.70;;;;;;2265842;61;20357;-63
2022/08/14 06:40:33;0.00;0.00;0.62;0.00;0.00;0.62;6.70;6.10;;;30.30;31.30;;;;;;2265660;61;20564;-62
2022/08/14 06:43:19;0.00;0.00;0.62;0.00;0.00;0.62;7.27;6.60;;;30.30;31.30;;;;;;2265755;61;20377;-63
2022/08/14 06:46:05;0.00;0.00;0.62;0.00;0.00;0.62;7.40;6.80;;;30.30;31.30;;;;;;2265199;61;20349;-66
2022/08/14 06:48:49;0.00;0.00;0.62;0.00;0.00;0.62;7.60;6.90;;;30.40;31.30;;;;;;2265304;61;20408;-64
2022/08/14 06:51:34;0.00;0.00;0.62;0.00;0.00;0.62;6.50;5.90;;;30.40;31.20;;;;;;2265571;61;20412;-63
2022/08/14 06:54:19;0.00;0.00;0.62;0.00;0.00;0.62;6.97;6.43;;;30.40;31.10;;;;;;2265988;61;20431;-63
2022/08/14 06:57:05;0.00;0.00;0.62;0.00;0.00;0.62;7.53;6.93;;;30.40;31.10;;;;;;2265297;61;20381;-64
2022/08/14 06:59:50;0.00;0.00;0.62;0.00;0.00;0.62;10.73;7.03;;;30.40;31.10;;;;;;2265313;61;20469;-63
2022/08/14 07:05:47;0.00;0.00;0.62;0.00;0.00;0.62;6.63;6.13;;;30.40;31.10;;;;;;2265479;61;20405;-61
2022/08/14 07:08:32;0.00;0.00;0.62;0.00;0.00;0.62;7.17;6.57;;;30.50;31.30;;;;;;2266040;61;20350;-63
2022/08/14 07:11:17;0.00;0.00;0.62;0.00;0.00;0.62;7.60;7.00;;;30.50;31.20;;;;;;2265145;61;20791;-62
2022/08/14 07:14:03;0.00;0.00;0.62;0.00;0.00;0.62;7.50;6.90;;;30.50;31.20;;;;;;2265358;61;20429;-65
2022/08/14 07:16:48;0.00;0.00;0.62;0.00;0.00;0.62;7.30;6.60;;;30.50;31.20;;;;;;2265608;61;20365;-64
2022/08/14 07:19:33;0.00;0.00;0.62;0.00;0.00;0.62;7.10;6.57;;;30.50;31.10;;;;;;2265527;61;20580;-66
2022/08/14 07:22:17;0.00;0.00;0.62;0.00;0.00;0.62;6.70;6.10;;;30.60;31.30;;;;;;2265487;61;20381;-66
2022/08/14 07:25:03;0.00;0.00;0.62;0.00;0.00;0.62;7.43;6.83;;;30.60;31.30;;;;;;2265478;61;20748;-65
2022/08/14 07:27:48;0.00;0.00;0.62;0.00;0.00;0.62;7.47;6.77;;;30.60;31.20;;;;;;2265606;61;20365;-62
2022/08/14 07:30:34;0.00;0.00;0.62;0.00;0.00;0.62;7.53;6.87;;;30.60;31.30;;;;;;2264155;61;20388;-65
2022/08/14 07:33:20;0.00;0.00;0.62;0.00;0.00;0.62;7.67;7.07;;;30.60;31.40;;;;;;2344191;45;20396;-64
2022/08/14 07:36:09;0.00;0.00;0.62;0.00;0.00;0.62;8.17;7.57;;;30.60;31.40;;;;;;2264653;61;20679;-61
2022/08/14 07:38:56;0.00;0.00;0.62;0.00;0.00;0.62;8.53;7.83;;;30.60;31.40;;;;;;2354555;53;20605;-62
2022/08/14 07:41:43;0.00;0.00;0.62;0.00;0.00;0.62;7.97;7.30;;;30.60;31.50;;;;;;2265346;61;20469;-60
2022/08/14 07:44:28;0.00;0.00;0.62;0.00;0.00;0.62;8.10;7.43;;;30.70;31.50;;;;;;2265375;61;20444;-61
2022/08/14 07:47:15;0.00;0.00;0.62;0.00;0.00;0.62;7.30;6.70;;;30.70;31.60;;;;;;2265115;61;20376;-62
2022/08/14 07:50:11;0.00;0.00;0.62;0.00;0.00;0.62;8.00;7.40;;;30.70;31.60;;;;;;2265721;61;20460;-59
2022/08/14 07:52:55;0.00;0.00;0.62;0.00;0.00;0.62;8.30;7.70;;;30.70;31.60;;;;;;2265672;61;20385;-61
2022/08/14 07:55:41;0.00;0.00;0.62;0.00;0.00;0.62;8.10;7.30;;;30.70;31.70;;;;;;2264727;61;21020;-60
2022/08/14 07:58:27;0.00;0.00;0.62;0.00;0.00;0.62;7.50;6.90;;;30.70;31.60;;;;;;2319374;53;20412;-61
2022/08/14 08:01:13;0.00;0.00;0.62;0.00;0.00;0.62;8.67;7.97;;;30.80;31.60;;;;;;2261317;61;20357;-60
2022/08/14 08:04:02;0.00;0.00;0.62;0.00;0.00;0.62;8.50;7.80;;;30.80;31.60;;;;;;2261270;61;20458;-59
2022/08/14 08:06:47;0.00;0.00;0.62;0.00;0.00;0.62;7.53;6.93;;;30.80;31.70;;;;;;2261134;61;20382;-60
2022/08/14 08:09:34;0.00;0.00;0.62;0.00;0.00;0.62;8.80;8.10;;;30.80;31.60;;;;;;2259311;61;20660;-63
2022/08/14 08:12:20;0.00;0.00;0.62;0.00;0.00;0.62;8.80;8.10;;;30.80;31.60;;;;;;2350447;53;20469;-59
2022/08/14 08:15:06;0.00;0.00;0.62;0.00;0.00;0.62;8.10;7.40;;;30.80;31.70;;;;;;2265520;61;20396;-61
2022/08/14 08:17:51;0.00;0.00;0.62;0.00;0.00;0.62;8.30;7.63;;;30.80;31.60;;;;;;2264842;61;20416;-61
2022/08/14 08:20:41;0.00;0.00;0.62;0.00;0.00;0.62;9.77;8.87;;;30.80;31.60;;;;;;2265227;61;20352;-62
2022/08/14 08:23:28;0.00;0.00;0.62;0.00;0.00;0.62;9.13;8.33;;;30.90;31.60;;;;;;2265700;61;20373;-62
2022/08/14 08:26:14;0.00;0.00;0.62;0.00;0.00;0.62;9.27;8.47;;;30.90;31.60;;;;;;2265179;61;20609;-62
2022/08/14 08:28:59;0.00;0.00;0.62;0.00;0.00;0.62;7.63;6.93;;;30.90;31.50;;;;;;2264584;61;20433;-59
2022/08/14 08:31:51;0.00;0.00;0.62;0.00;0.00;0.62;8.53;7.73;;;30.90;31.40;;;;;;2265224;61;20377;-62
2022/08/14 08:34:47;0.00;0.00;0.62;0.00;0.00;0.62;7.93;7.30;;;30.90;31.40;;;;;;2265388;61;20381;-60
2022/08/14 08:37:35;0.00;0.00;0.62;0.00;0.00;0.62;8.30;7.70;;;30.90;31.40;;;;;;2265485;61;20453;-62
2022/08/14 08:40:26;0.00;0.00;0.62;0.00;0.00;0.62;7.93;7.23;;;31.00;31.50;;;;;;2264869;61;20465;-62
2022/08/14 08:43:20;0.00;0.00;0.62;0.00;0.00;0.62;7.93;7.23;;;31.00;31.40;;;;;;2265038;61;20380;-63
2022/08/14 08:46:10;0.00;0.00;0.62;0.00;0.00;0.62;9.20;8.30;;;31.00;31.40;;;;;;2497017;53;20353;-62
2022/08/14 08:48:56;0.00;0.00;0.62;0.00;0.00;0.62;8.60;7.90;;;31.00;31.50;;;;;;2261362;61;20353;-60
2022/08/14 08:51:42;0.00;0.00;0.62;0.00;0.00;0.62;9.50;8.70;;;31.00;31.40;;;;;;2261040;61;20418;-61
2022/08/14 08:54:28;0.00;0.00;0.62;0.00;0.00;0.62;9.43;8.60;;;31.00;31.40;;;;;;2260705;61;20602;-61
2022/08/14 08:57:13;0.00;0.00;0.62;0.00;0.00;0.62;9.10;8.30;;;31.00;31.40;;;;;;2260935;61;20370;-61
2022/08/14 09:00:01;0.00;0.00;0.62;0.00;0.00;0.62;9.40;8.60;;;31.00;31.50;;;;;;2262134;61;20365;-60
2022/08/14 09:02:56;0.00;0.00;0.62;0.00;0.00;0.62;8.90;8.00;;;31.10;31.40;;;;;;2261048;61;20405;-62
2022/08/14 09:05:50;0.00;0.00;0.62;0.00;0.00;0.62;9.67;8.77;;;31.10;31.40;;;;;;2260810;61;20446;-62
2022/08/14 09:08:36;0.00;0.00;0.62;0.00;0.00;0.62;9.30;8.50;;;31.10;31.40;;;;;;2261195;61;20357;-62
2022/08/14 09:11:23;0.00;0.00;0.62;0.00;0.00;0.62;9.20;8.37;;;31.10;31.40;;;;;;2262563;61;20404;-63
2022/08/14 09:14:08;0.00;0.00;0.62;0.00;0.00;0.62;8.47;7.80;;;31.10;31.40;;;;;;2265059;61;20360;-57
2022/08/14 09:16:54;0.00;0.00;0.62;0.00;0.00;0.62;9.07;8.27;;;31.10;31.40;;;;;;2264684;61;20408;-62
2022/08/14 09:19:39;0.00;0.00;0.62;0.00;0.00;0.62;9.20;8.40;;;31.10;31.40;;;;;;2265371;61;20388;-61
2022/08/14 09:22:25;0.00;0.00;0.62;0.00;0.00;0.62;9.27;8.40;;;31.20;31.40;;;;;;2265572;61;20376;-63
2022/08/14 09:25:10;0.00;0.00;0.62;0.00;0.00;0.62;8.47;7.60;;;31.20;31.40;;;;;;2264873;61;20357;-62
2022/08/14 09:27:57;0.00;0.00;0.62;0.00;0.00;0.62;8.33;7.53;;;31.20;31.40;;;;;;2265368;61;20737;-61
2022/08/14 09:30:46;0.00;0.00;0.62;0.00;0.00;0.62;8.20;7.50;;;31.20;31.30;;;;;;2265129;61;20369;-62
2022/08/14 09:34:02;0.00;0.00;0.62;0.00;0.00;0.62;9.37;8.47;;;31.20;31.40;;;;;;2265152;61;20709;-59
2022/08/14 09:37:20;0.00;0.00;0.62;0.00;0.00;0.62;8.33;7.60;;;31.20;31.50;;;;;;2265767;61;20357;-59
2022/08/14 09:40:16;0.00;0.00;0.62;0.00;0.00;0.62;9.13;8.33;;;31.20;31.50;;;;;;2265845;61;20369;-59
2022/08/14 09:43:20;0.00;0.00;0.62;0.00;0.00;0.62;8.30;7.70;;;31.20;31.50;;;;;;2265990;61;20469;-61
2022/08/14 09:46:07;0.00;0.00;0.62;0.00;0.00;0.62;10.00;9.10;;;31.30;31.40;;;;;;2511497;53;20353;-61
2022/08/14 09:48:58;0.00;0.00;0.62;0.00;0.00;0.62;8.60;7.80;;;31.30;31.40;;;;;;2262149;61;20362;-62
2022/08/14 09:51:44;0.00;0.00;0.62;0.00;0.00;0.62;8.77;7.97;;;31.30;31.30;;;;;;2262166;61;20418;-61
2022/08/14 09:54:38;0.00;0.00;0.62;0.00;0.00;0.62;8.60;7.73;;;31.30;31.30;;;;;;2261458;61;20464;-63
2022/08/14 09:57:27;0.00;0.00;0.62;0.00;0.00;0.62;8.33;7.60;;;31.30;31.30;;;;;;2262966;61;20588;-65
2022/08/14 10:00:17;0.00;0.00;0.62;0.00;0.00;0.62;8.87;8.10;;;31.30;31.50;;;;;;2261835;61;20362;-61
2022/08/14 10:03:02;0.00;0.00;0.62;0.00;0.00;0.62;8.73;7.50;;;31.30;31.70;;;;;;2261875;61;20832;-63
2022/08/14 10:05:47;0.00;0.00;0.62;0.00;0.00;0.62;8.90;8.00;;;31.30;31.70;;;;;;2261850;61;20358;-64
2022/08/14 10:08:42;0.00;0.00;0.62;0.00;0.00;0.62;9.33;8.47;;;31.40;31.70;;;;;;2261519;61;20370;-62
2022/08/14 10:11:35;0.00;0.00;0.62;0.00;0.00;0.62;8.90;8.10;;;31.40;31.70;;;;;;2261784;61;20439;-64
2022/08/14 10:14:25;0.00;0.00;0.62;0.00;0.00;0.62;9.07;8.27;;;31.40;32.30;;;;;;2262105;61;20428;-66
2022/08/14 10:17:25;0.00;0.00;0.62;0.00;0.00;0.62;8.77;7.87;;;31.40;31.70;;;;;;2265314;61;20385;-65
2022/08/14 10:20:12;0.00;0.00;0.62;0.00;0.00;0.62;8.77;8.07;;;31.40;31.70;;;;;;2264952;61;20379;-69
2022/08/14 10:23:12;0.00;0.00;0.62;0.00;0.00;0.62;9.27;8.47;;;31.50;31.90;;;;;;2264538;61;20424;-62
2022/08/14 10:26:04;0.00;0.00;0.62;0.00;0.00;0.62;9.43;8.63;;;31.50;31.90;;;;;;2265522;61;20404;-67
2022/08/14 10:28:51;0.00;0.00;0.62;0.00;0.00;0.62;9.17;8.20;;;31.50;31.90;;;;;;2269807;61;20429;-68
2022/08/14 10:31:37;0.00;0.00;0.62;0.00;0.00;0.62;8.60;7.90;;;31.50;31.80;;;;;;2260876;61;20416;-66
2022/08/14 10:34:32;0.00;0.00;0.62;0.00;0.00;0.62;10.33;9.33;;;31.50;31.80;;;;;;2261736;61;20585;-63
2022/08/14 10:37:18;0.00;0.00;0.62;0.00;0.00;0.62;8.20;7.50;;;31.50;31.60;;;;;;2261020;61;20358;-65
2022/08/14 10:40:06;0.00;0.00;0.62;0.00;0.00;0.62;10.67;7.70;;;31.60;31.70;;;;;;2261354;61;20645;-61
2022/08/14 10:42:51;0.00;0.00;0.62;0.00;0.00;0.62;9.97;8.97;;;31.60;31.60;;;;;;2260176;61;20378;-60
2022/08/14 10:45:36;0.00;0.00;0.62;0.00;0.00;0.62;8.10;7.47;;;31.60;31.40;;;;;;2260820;61;20777;-62
2022/08/14 10:48:21;0.00;0.00;0.62;0.00;0.00;0.62;8.20;7.50;;;31.60;31.30;;;;;;2261922;61;20358;-61
2022/08/14 10:51:08;0.00;0.00;0.62;0.00;0.00;0.62;8.27;7.47;;;31.70;31.40;;;;;;2261625;61;20361;-63
2022/08/14 10:53:55;0.00;0.00;0.62;0.00;0.00;0.62;8.57;7.80;;;31.70;31.20;;;;;;2261151;61;20366;-62
2022/08/14 10:56:40;0.00;0.00;0.62;0.00;0.00;0.62;8.87;7.70;;;31.70;31.20;;;;;;2261537;61;20374;-62
2022/08/14 10:59:25;0.00;0.00;0.62;0.00;0.00;0.62;9.17;8.37;;;31.70;31.20;;;;;;2338668;53;20392;-64
2022/08/14 11:02:27;0.00;0.00;0.62;0.00;0.00;0.62;9.00;8.30;;;31.70;31.10;;;;;;2264623;61;20651;-64
2022/08/14 11:05:17;0.00;0.00;0.62;0.00;0.00;0.62;8.57;7.80;;;31.70;31.10;;;;;;2501956;53;20395;-67
2022/08/14 11:08:03;0.00;0.00;0.62;0.00;0.00;0.62;8.80;7.93;;;31.80;31.30;;;;;;2506657;53;20387;-61
2022/08/14 11:10:54;0.00;0.00;0.62;0.00;0.00;0.62;9.73;8.70;;;31.80;31.10;;;;;;2270017;61;20456;-64
2022/08/14 11:13:45;0.00;0.00;0.62;0.00;0.00;0.62;9.63;8.77;;;31.80;31.10;;;;;;2270015;61;20433;-66
2022/08/14 11:16:31;0.00;0.00;0.62;0.00;0.00;0.62;9.90;8.87;;;31.90;31.30;;;;;;2268759;61;20467;-65